createdAt,value
2018-06-25T00:02:09.479Z,14.25
2018-06-25T00:04:37.557Z,14.23
2018-06-25T00:07:05.741Z,14.21
2018-06-25T00:09:33.845Z,14.26
2018-06-25T00:12:02.352Z,14.29
2018-06-25T00:14:30.404Z,14.26
2018-06-25T00:16:58.449Z,14.28
2018-06-25T00:19:26.496Z,14.29
2018-06-25T00:21:54.575Z,14.33
2018-06-25T00:24:22.627Z,14.36
2018-06-25T00:26:50.727Z,14.37
2018-06-25T00:29:18.771Z,14.40
2018-06-25T00:31:46.808Z,14.42
2018-06-25T00:34:14.835Z,14.44
2018-06-25T00:36:42.879Z,14.45
2018-06-25T00:39:12.028Z,14.34
2018-06-25T00:41:40.072Z,14.36
2018-06-25T00:44:08.151Z,14.16
2018-06-25T00:46:36.456Z,14.08
2018-06-25T00:49:04.706Z,14.04
2018-06-25T00:51:32.768Z,14.09
2018-06-25T00:54:00.807Z,14.12
2018-06-25T00:56:28.924Z,14.13
2018-06-25T00:59:08.556Z,14.15
2018-06-25T01:01:36.604Z,14.14
2018-06-25T01:04:04.642Z,14.14
2018-06-25T01:06:32.740Z,14.10
2018-06-25T01:09:00.768Z,14.10
2018-06-25T01:11:28.797Z,14.09
2018-06-25T01:13:56.835Z,14.10
2018-06-25T01:16:24.871Z,14.08
2018-06-25T01:18:52.916Z,14.07
2018-06-25T01:21:20.947Z,14.07
2018-06-25T01:23:49.025Z,13.98
2018-06-25T01:26:17.068Z,13.96
2018-06-25T01:28:45.277Z,13.97
2018-06-25T01:31:13.311Z,13.90
2018-06-25T01:33:41.334Z,13.91
2018-06-25T01:36:09.711Z,13.86
2018-06-25T01:38:37.775Z,13.90
2018-06-25T01:41:05.827Z,13.83
2018-06-25T01:43:33.880Z,13.86
2018-06-25T01:46:01.906Z,13.80
2018-06-25T01:48:29.936Z,13.85
2018-06-25T01:50:57.979Z,13.85
2018-06-25T01:53:26.018Z,13.87
2018-06-25T01:55:54.085Z,13.90
2018-06-25T01:58:22.128Z,13.94
2018-06-25T02:00:50.327Z,13.98
2018-06-25T02:03:18.544Z,13.99
2018-06-25T02:05:46.567Z,14.01
2018-06-25T02:08:14.591Z,14.03
2018-06-25T02:10:42.643Z,14.03
2018-06-25T02:13:10.668Z,13.99
2018-06-25T02:15:38.856Z,13.94
2018-06-25T02:18:06.883Z,13.94
2018-06-25T02:20:34.927Z,13.95
2018-06-25T02:23:03.196Z,13.94
2018-06-25T02:25:31.245Z,13.96
2018-06-25T02:27:59.284Z,13.96
2018-06-25T02:30:27.334Z,13.96
2018-06-25T02:32:55.372Z,13.96
2018-06-25T02:35:23.728Z,13.97
2018-06-25T02:37:51.773Z,13.98
2018-06-25T02:40:19.798Z,14.03
2018-06-25T02:42:47.863Z,14.04
2018-06-25T02:45:15.908Z,14.06
2018-06-25T02:47:43.940Z,14.06
2018-06-25T02:50:12.148Z,14.05
2018-06-25T02:52:40.188Z,14.06
2018-06-25T02:55:08.248Z,14.05
2018-06-25T02:57:36.352Z,14.05
2018-06-25T03:00:04.809Z,14.04
2018-06-25T03:02:32.940Z,14.04
2018-06-25T03:05:00.990Z,14.04
2018-06-25T03:07:29.032Z,13.97
2018-06-25T03:09:57.089Z,13.96
2018-06-25T03:12:25.119Z,13.97
2018-06-25T03:14:53.160Z,14.02
2018-06-25T03:17:21.220Z,14.01
2018-06-25T03:19:49.260Z,14.08
2018-06-25T03:22:17.307Z,14.09
2018-06-25T03:24:45.367Z,14.10
2018-06-25T03:27:13.423Z,14.11
2018-06-25T03:29:41.507Z,14.13
2018-06-25T03:32:09.682Z,14.14
2018-06-25T03:34:37.761Z,14.13
2018-06-25T03:37:05.860Z,14.12
2018-06-25T03:39:34.001Z,14.11
2018-06-25T03:42:02.056Z,14.11
2018-06-25T03:44:30.184Z,14.12
2018-06-25T03:46:58.227Z,14.14
2018-06-25T03:49:26.599Z,14.16
2018-06-25T03:51:54.655Z,14.18
2018-06-25T03:54:22.691Z,14.20
2018-06-25T03:56:50.741Z,14.23
2018-06-25T03:59:18.799Z,14.24
2018-06-25T04:01:46.823Z,14.24
2018-06-25T04:04:14.870Z,14.24
2018-06-25T04:06:42.904Z,14.23
2018-06-25T04:09:11.824Z,14.23
2018-06-25T04:11:40.337Z,14.23
2018-06-25T04:14:08.620Z,14.23
2018-06-25T04:16:37.161Z,14.25
2018-06-25T04:19:06.032Z,14.28
2018-06-25T04:21:35.653Z,14.32
2018-06-25T04:24:03.729Z,14.32
2018-06-25T04:26:32.315Z,14.35
2018-06-25T04:29:00.536Z,14.38
2018-06-25T04:31:29.097Z,14.37
2018-06-25T04:33:57.196Z,14.40
2018-06-25T04:36:25.240Z,14.42
2018-06-25T04:38:53.278Z,14.37
2018-06-25T04:41:21.327Z,14.41
2018-06-25T04:43:49.364Z,14.41
2018-06-25T04:46:17.448Z,14.42
2018-06-25T04:48:45.496Z,14.45
2018-06-25T04:51:13.551Z,14.45
2018-06-25T04:53:42.286Z,14.49
2018-06-25T04:56:10.971Z,14.52
2018-06-25T04:58:39.024Z,14.59
2018-06-25T05:01:07.164Z,14.63
2018-06-25T05:03:35.188Z,14.69
2018-06-25T05:06:03.267Z,14.77
2018-06-25T05:08:31.307Z,14.84
2018-06-25T05:10:59.687Z,14.94
2018-06-25T05:13:27.743Z,15.05
2018-06-25T05:15:55.776Z,15.14
2018-06-25T05:18:23.883Z,15.19
2018-06-25T05:20:51.926Z,15.17
2018-06-25T05:23:19.990Z,15.19
2018-06-25T05:25:48.130Z,14.92
2018-06-25T05:28:16.255Z,15.17
2018-06-25T05:30:44.307Z,15.16
2018-06-25T05:33:12.420Z,15.16
2018-06-25T05:35:40.560Z,15.14
2018-06-25T05:38:08.643Z,15.15
2018-06-25T05:40:36.707Z,15.16
2018-06-25T05:43:04.836Z,15.17
2018-06-25T05:45:33.051Z,15.14
2018-06-25T05:48:01.109Z,15.20
2018-06-25T05:50:29.159Z,15.09
2018-06-25T05:52:57.187Z,15.20
2018-06-25T05:55:25.236Z,15.32
2018-06-25T05:57:53.281Z,15.44
2018-06-25T06:00:21.545Z,15.46
2018-06-25T06:02:50.056Z,15.47
2018-06-25T06:05:18.120Z,15.51
2018-06-25T06:07:46.167Z,15.52
2018-06-25T06:10:14.196Z,15.47
2018-06-25T06:12:42.825Z,15.58
2018-06-25T06:15:10.920Z,15.48
2018-06-25T06:17:39.094Z,15.49
2018-06-25T06:20:07.171Z,15.51
2018-06-25T06:22:35.263Z,15.49
2018-06-25T06:25:03.317Z,15.54
2018-06-25T06:27:31.356Z,15.55
2018-06-25T06:30:00.683Z,15.53
2018-06-25T06:32:28.760Z,15.57
2018-06-25T06:34:56.828Z,15.66
2018-06-25T06:37:24.915Z,15.68
2018-06-25T06:39:52.971Z,15.75
2018-06-25T06:42:20.980Z,15.38
2018-06-25T06:44:49.011Z,15.36
2018-06-25T06:47:17.055Z,15.44
2018-06-25T06:49:45.072Z,15.51
2018-06-25T06:52:13.109Z,15.51
2018-06-25T06:54:41.184Z,15.55
2018-06-25T06:57:09.583Z,15.58
2018-06-25T06:59:37.658Z,15.55
2018-06-25T07:02:06.088Z,15.53
2018-06-25T07:04:34.187Z,15.46
2018-06-25T07:07:02.216Z,15.58
2018-06-25T07:09:30.259Z,15.70
2018-06-25T07:11:58.331Z,15.78
2018-06-25T07:14:26.377Z,15.89
2018-06-25T07:16:54.416Z,15.87
2018-06-25T07:19:22.440Z,15.90
2018-06-25T07:21:50.488Z,15.92
2018-06-25T07:24:18.583Z,16.14
2018-06-25T07:26:46.660Z,16.24
2018-06-25T07:29:14.721Z,16.39
2018-06-25T07:31:42.757Z,16.34
2018-06-25T07:34:10.795Z,16.03
2018-06-25T07:36:38.827Z,16.17
2018-06-25T07:39:08.483Z,16.21
2018-06-25T07:41:36.570Z,16.05
2018-06-25T07:44:04.595Z,16.05
2018-06-25T07:46:32.639Z,15.96
2018-06-25T07:49:00.676Z,16.21
2018-06-25T07:51:28.740Z,16.45
2018-06-25T07:53:56.783Z,16.83
2018-06-25T07:56:24.895Z,16.75
2018-06-25T07:58:52.931Z,17.00
2018-06-25T08:01:20.997Z,17.17
2018-06-25T08:03:48.996Z,17.45
2018-06-25T08:06:17.053Z,17.58
2018-06-25T08:08:45.279Z,18.10
2018-06-25T08:11:13.429Z,18.56
2018-06-25T08:13:41.496Z,18.35
2018-06-25T08:16:09.756Z,18.70
2018-06-25T08:18:37.759Z,19.60
2018-06-25T08:21:05.780Z,20.01
2018-06-25T08:23:33.832Z,20.05
2018-06-25T08:26:01.862Z,20.19
2018-06-25T08:28:29.896Z,20.16
2018-06-25T08:30:57.936Z,19.45
2018-06-25T08:33:25.952Z,18.99
2018-06-25T08:35:53.967Z,18.99
2018-06-25T08:38:22.018Z,18.90
2018-06-25T08:40:50.067Z,18.91
2018-06-25T08:43:18.178Z,19.05
2018-06-25T08:45:46.333Z,19.15
2018-06-25T08:48:14.299Z,19.23
2018-06-25T08:50:42.339Z,19.36
2018-06-25T08:53:10.411Z,19.06
2018-06-25T08:55:38.575Z,19.43
2018-06-25T08:58:06.611Z,19.65
2018-06-25T09:00:34.707Z,20.00
2018-06-25T09:03:02.834Z,20.06
2018-06-25T09:05:30.860Z,20.32
2018-06-25T09:07:58.899Z,20.66
2018-06-25T09:10:26.916Z,20.58
2018-06-25T09:12:55.014Z,20.73
2018-06-25T09:15:23.116Z,20.53
2018-06-25T09:17:51.055Z,20.22
2018-06-25T09:20:19.096Z,20.22
2018-06-25T09:22:47.137Z,19.75
2018-06-25T09:25:15.452Z,19.22
2018-06-25T09:27:48.055Z,19.31
2018-06-25T09:30:16.420Z,19.20
2018-06-25T09:32:44.462Z,18.77
2018-06-25T09:35:12.586Z,19.06
2018-06-25T09:37:40.659Z,19.25
2018-06-25T09:40:09.281Z,19.60
2018-06-25T09:42:37.981Z,19.76
2018-06-25T09:45:07.345Z,19.86
2018-06-25T09:47:35.435Z,19.97
2018-06-25T09:50:03.503Z,19.99
2018-06-25T09:52:31.563Z,20.76
2018-06-25T09:54:59.614Z,20.69
2018-06-25T09:57:27.651Z,21.01
2018-06-25T09:59:55.911Z,21.46
2018-06-25T10:02:23.989Z,21.61
2018-06-25T10:04:52.055Z,21.69
2018-06-25T10:07:20.152Z,21.41
2018-06-25T10:09:48.208Z,20.94
2018-06-25T10:12:16.243Z,21.09
2018-06-25T10:14:44.318Z,21.01
2018-06-25T10:17:12.354Z,20.83
2018-06-25T10:19:40.435Z,21.19
2018-06-25T10:22:08.476Z,21.19
2018-06-25T10:24:36.482Z,21.28
2018-06-25T10:27:04.586Z,21.30
2018-06-25T10:29:32.711Z,21.43
2018-06-25T10:32:00.737Z,21.16
2018-06-25T10:34:28.855Z,21.03
2018-06-25T10:36:56.872Z,21.10
2018-06-25T10:39:24.897Z,21.25
2018-06-25T10:41:52.936Z,20.93
2018-06-25T10:44:20.972Z,21.13
2018-06-25T10:46:49.449Z,21.32
2018-06-25T10:49:17.480Z,21.91
2018-06-25T10:51:45.747Z,22.05
2018-06-25T10:54:13.862Z,22.22
2018-06-25T10:56:42.138Z,22.61
2018-06-25T10:59:10.436Z,22.71
2018-06-25T11:01:38.468Z,22.62
2018-06-25T11:04:06.492Z,22.65
2018-06-25T11:06:34.532Z,22.61
2018-06-25T11:09:02.600Z,22.55
2018-06-25T11:11:30.860Z,22.77
2018-06-25T11:13:58.900Z,22.28
2018-06-25T11:16:27.031Z,22.55
2018-06-25T11:18:55.108Z,22.61
2018-06-25T11:21:23.173Z,21.67
2018-06-25T11:23:51.187Z,21.40
2018-06-25T11:26:19.253Z,20.99
2018-06-25T11:28:47.283Z,20.13
2018-06-25T11:31:15.360Z,19.93
2018-06-25T11:33:43.527Z,19.55
2018-06-25T11:36:11.675Z,19.21
2018-06-25T11:38:39.753Z,18.93
2018-06-25T11:41:07.772Z,19.09
2018-06-25T11:43:35.788Z,19.21
2018-06-25T11:46:03.820Z,19.27
2018-06-25T11:48:31.869Z,19.16
2018-06-25T11:50:59.919Z,19.11
2018-06-25T11:53:27.964Z,19.29
2018-06-25T11:55:55.997Z,19.50
2018-06-25T11:58:24.056Z,19.72
2018-06-25T12:00:52.098Z,19.73
2018-06-25T12:03:20.195Z,20.10
2018-06-25T12:05:48.270Z,20.35
2018-06-25T12:08:16.318Z,20.47
2018-06-25T12:10:44.440Z,20.75
2018-06-25T12:13:12.432Z,21.21
2018-06-25T12:15:40.460Z,21.41
2018-06-25T12:18:08.541Z,21.22
2018-06-25T12:20:36.604Z,21.41
2018-06-25T12:23:04.925Z,20.90
2018-06-25T12:25:32.964Z,20.75
2018-06-25T12:28:00.987Z,20.40
2018-06-25T12:30:29.048Z,20.89
2018-06-25T12:32:57.067Z,20.75
2018-06-25T12:35:25.188Z,20.74
2018-06-25T12:37:53.291Z,21.23
2018-06-25T12:40:21.288Z,21.43
2018-06-25T12:42:49.319Z,21.74
2018-06-25T12:45:17.371Z,21.96
2018-06-25T12:47:45.499Z,22.10
2018-06-25T12:50:13.825Z,21.74
2018-06-25T12:52:41.955Z,21.56
2018-06-25T12:55:10.109Z,21.80
2018-06-25T12:57:38.285Z,22.13
2018-06-25T13:00:06.352Z,22.32
2018-06-25T13:02:34.468Z,22.61
2018-06-25T13:05:03.454Z,22.61
2018-06-25T13:07:31.536Z,22.83
2018-06-25T13:09:59.744Z,22.75
2018-06-25T13:12:27.828Z,22.73
2018-06-25T13:14:55.918Z,22.78
2018-06-25T13:17:23.947Z,22.87
2018-06-25T13:19:52.048Z,22.79
2018-06-25T13:22:20.077Z,22.29
2018-06-25T13:24:48.120Z,22.47
2018-06-25T13:27:16.159Z,22.34
2018-06-25T13:29:44.233Z,22.42
2018-06-25T13:32:12.284Z,22.62
2018-06-25T13:34:40.338Z,22.82
2018-06-25T13:37:08.384Z,22.84
2018-06-25T13:39:36.604Z,22.88
2018-06-25T13:42:05.033Z,23.16
2018-06-25T13:44:33.123Z,23.16
2018-06-25T13:47:01.235Z,23.38
2018-06-25T13:49:29.424Z,23.24
2018-06-25T13:51:57.553Z,22.84
2018-06-25T13:54:25.606Z,22.69
2018-06-25T13:56:53.631Z,22.12
2018-06-25T13:59:21.683Z,22.03
2018-06-25T14:01:49.700Z,22.09
2018-06-25T14:04:17.786Z,22.34
2018-06-25T14:06:45.880Z,21.90
2018-06-25T14:09:14.164Z,22.01
2018-06-25T14:11:42.231Z,22.27
2018-06-25T14:14:10.323Z,22.66
2018-06-25T14:16:39.098Z,22.78
2018-06-25T14:19:06.987Z,22.95
2018-06-25T14:21:35.099Z,22.83
2018-06-25T14:24:08.500Z,22.67
2018-06-25T14:26:43.368Z,22.35
2018-06-25T14:29:16.937Z,22.74
2018-06-25T14:31:45.331Z,22.74
2018-06-25T14:34:18.809Z,23.01
2018-06-25T14:36:47.176Z,22.68
2018-06-25T14:39:15.224Z,22.05
2018-06-25T14:41:43.335Z,22.44
2018-06-25T14:44:11.548Z,22.67
2018-06-25T14:46:39.846Z,22.34
2018-06-25T14:49:07.992Z,22.50
2018-06-25T14:51:36.231Z,22.64
2018-06-25T14:54:04.780Z,22.89
2018-06-25T14:56:33.650Z,23.05
2018-06-25T14:59:02.406Z,22.93
2018-06-25T15:01:30.508Z,22.68
2018-06-25T15:03:58.576Z,22.94
2018-06-25T15:06:26.612Z,22.85
2018-06-25T15:08:54.653Z,22.48
2018-06-25T15:11:22.790Z,22.64
2018-06-25T15:13:50.922Z,22.99
2018-06-25T15:16:18.966Z,23.15
2018-06-25T15:18:46.994Z,23.15
2018-06-25T15:21:15.033Z,23.29
2018-06-25T15:23:43.140Z,23.01
2018-06-25T15:26:11.232Z,23.03
2018-06-25T15:28:39.457Z,22.69
2018-06-25T15:31:07.724Z,22.72
2018-06-25T15:33:36.638Z,22.70
2018-06-25T15:36:05.369Z,22.46
2018-06-25T15:38:35.418Z,22.36
2018-06-25T15:41:03.460Z,22.25
2018-06-25T15:43:31.515Z,22.15
2018-06-25T15:45:59.576Z,22.35
2018-06-25T15:48:27.752Z,22.44
2018-06-25T15:50:55.812Z,22.66
2018-06-25T15:53:23.864Z,22.42
2018-06-25T15:55:52.192Z,22.52
2018-06-25T15:58:20.302Z,22.85
2018-06-25T16:00:48.327Z,23.09
2018-06-25T16:03:16.399Z,23.24
2018-06-25T16:05:45.423Z,23.12
2018-06-25T16:08:13.560Z,23.32
2018-06-25T16:10:42.202Z,23.13
2018-06-25T16:13:10.307Z,22.78
2018-06-25T16:15:38.336Z,22.63
2018-06-25T16:18:06.395Z,22.51
2018-06-25T16:20:34.473Z,22.46
2018-06-25T16:23:02.508Z,22.56
2018-06-25T16:25:30.548Z,22.49
2018-06-25T16:27:58.571Z,22.66
2018-06-25T16:30:27.756Z,22.44
2018-06-25T16:32:55.812Z,22.63
2018-06-25T16:35:23.846Z,22.76
2018-06-25T16:37:51.969Z,22.59
2018-06-25T16:40:20.030Z,22.60
2018-06-25T16:42:48.119Z,22.42
2018-06-25T16:45:16.210Z,22.05
2018-06-25T16:47:45.507Z,22.31
2018-06-25T16:50:13.724Z,22.28
2018-06-25T16:52:41.971Z,22.53
2018-06-25T16:55:10.351Z,22.37
2018-06-25T16:57:39.563Z,22.42
2018-06-25T17:00:07.825Z,22.38
2018-06-25T17:02:36.904Z,22.38
2018-06-25T17:05:05.814Z,22.20
2018-06-25T17:07:34.970Z,22.18
2018-06-25T17:10:03.571Z,22.26
2018-06-25T17:12:31.921Z,22.08
2018-06-25T17:15:00.062Z,21.89
2018-06-25T17:17:28.114Z,21.69
2018-06-25T17:19:56.153Z,21.84
2018-06-25T17:22:24.230Z,21.93
2018-06-25T17:24:52.585Z,21.64
2018-06-25T17:27:21.411Z,21.60
2018-06-25T17:29:49.476Z,21.58
2018-06-25T17:32:17.684Z,21.67
2018-06-25T17:34:45.768Z,21.59
2018-06-25T17:37:13.845Z,21.72
2018-06-25T17:39:41.868Z,21.67
2018-06-25T17:42:10.033Z,21.48
2018-06-25T17:44:38.191Z,21.53
2018-06-25T17:47:06.241Z,21.37
2018-06-25T17:49:34.535Z,21.37
2018-06-25T17:52:03.125Z,21.22
2018-06-25T17:54:31.399Z,21.24
2018-06-25T17:56:59.467Z,21.19
2018-06-25T17:59:27.647Z,21.14
2018-06-25T18:01:55.856Z,21.09
2018-06-25T18:04:24.284Z,21.07
2018-06-25T18:06:52.488Z,21.03
2018-06-25T18:09:20.549Z,20.91
2018-06-25T18:11:49.332Z,20.92
2018-06-25T18:14:17.436Z,20.91
2018-06-25T18:16:46.239Z,20.73
2018-06-25T18:19:14.361Z,20.81
2018-06-25T18:21:42.589Z,20.66
2018-06-25T18:24:10.787Z,20.67
2018-06-25T18:26:38.935Z,20.71
2018-06-25T18:29:07.210Z,20.69
2018-06-25T18:31:35.340Z,20.71
2018-06-25T18:34:04.058Z,20.72
2018-06-25T18:36:32.260Z,20.74
2018-06-25T18:39:00.578Z,20.72
2018-06-25T18:41:28.916Z,20.72
2018-06-25T18:43:57.036Z,20.70
2018-06-25T18:46:25.114Z,20.72
2018-06-25T18:48:53.152Z,20.67
2018-06-25T18:51:21.200Z,20.53
2018-06-25T18:53:49.523Z,20.47
2018-06-25T18:56:17.834Z,20.44
2018-06-25T18:58:46.025Z,20.39
2018-06-25T19:01:14.496Z,20.33
2018-06-25T19:03:43.001Z,20.24
2018-06-25T19:06:11.283Z,20.23
2018-06-25T19:08:39.498Z,20.16
2018-06-25T19:11:07.785Z,20.07
2018-06-25T19:13:36.373Z,19.98
2018-06-25T19:16:04.954Z,19.92
2018-06-25T19:18:33.528Z,19.81
2018-06-25T19:21:01.631Z,19.67
2018-06-25T19:23:29.729Z,19.60
2018-06-25T19:25:57.952Z,19.49
2018-06-25T19:28:26.124Z,19.52
2018-06-25T19:30:54.239Z,19.34
2018-06-25T19:33:22.426Z,19.22
2018-06-25T19:35:54.957Z,19.12
2018-06-25T19:38:23.493Z,18.97
2018-06-25T19:40:51.577Z,18.79
2018-06-25T19:43:19.965Z,18.81
2018-06-25T19:45:48.365Z,18.84
2018-06-25T19:48:20.510Z,18.72
2018-06-25T19:50:48.580Z,18.60
2018-06-25T19:53:16.639Z,18.48
2018-06-25T19:55:44.800Z,18.41
2018-06-25T19:58:13.111Z,18.40
2018-06-25T20:00:41.588Z,18.35
2018-06-25T20:03:10.016Z,18.28
2018-06-25T20:05:39.538Z,18.24
2018-06-25T20:08:07.740Z,18.15
2018-06-25T20:10:36.490Z,17.90
2018-06-25T20:13:04.936Z,17.79
2018-06-25T20:15:33.083Z,17.74
2018-06-25T20:18:01.545Z,17.67
2018-06-25T20:20:29.846Z,17.52
2018-06-25T20:22:58.256Z,17.54
2018-06-25T20:25:27.358Z,17.41
2018-06-25T20:27:55.424Z,17.48
2018-06-25T20:30:23.601Z,17.51
2018-06-25T20:32:51.639Z,17.49
2018-06-25T20:35:19.872Z,17.44
2018-06-25T20:37:48.019Z,17.32
2018-06-25T20:43:01.235Z,17.21
2018-06-25T20:45:29.319Z,17.11
2018-06-25T20:47:57.403Z,16.91
2018-06-25T20:50:25.676Z,16.87
2018-06-25T20:52:53.851Z,16.60
2018-06-25T20:55:22.000Z,16.65
2018-06-25T20:57:50.060Z,16.57
2018-06-25T21:00:18.134Z,16.44
2018-06-25T21:02:46.457Z,16.22
2018-06-25T21:05:14.496Z,16.24
2018-06-25T21:07:42.552Z,16.23
2018-06-25T21:10:10.678Z,16.22
2018-06-25T21:12:38.704Z,16.13
2018-06-25T21:15:06.871Z,15.99
2018-06-25T21:17:34.916Z,16.02
2018-06-25T21:20:03.277Z,15.90
2018-06-25T21:22:31.362Z,15.88
2018-06-25T21:24:59.563Z,15.90
2018-06-25T21:27:27.665Z,15.91
2018-06-25T21:29:55.727Z,15.88
2018-06-25T21:32:23.993Z,15.88
2018-06-25T21:34:52.132Z,15.85
2018-06-25T21:37:20.172Z,15.80
2018-06-25T21:39:48.394Z,15.69
2018-06-25T21:42:16.464Z,15.56
2018-06-25T21:44:44.504Z,15.48
2018-06-25T21:47:13.207Z,15.44
2018-06-25T21:49:41.399Z,15.40
2018-06-25T21:52:09.486Z,15.19
2018-06-25T21:54:37.688Z,15.22
2018-06-25T21:57:05.755Z,15.07
2018-06-25T21:59:33.855Z,15.16
2018-06-25T22:02:01.968Z,15.14
2018-06-25T22:04:30.037Z,15.09
2018-06-25T22:06:58.084Z,15.04
2018-06-25T22:09:26.169Z,15.01
2018-06-25T22:11:54.225Z,14.93
2018-06-25T22:14:22.295Z,14.79
2018-06-25T22:16:50.423Z,14.70
2018-06-25T22:19:18.582Z,14.62
2018-06-25T22:21:46.634Z,14.59
2018-06-25T22:24:14.843Z,14.63
2018-06-25T22:26:42.921Z,14.61
2018-06-25T22:29:11.013Z,14.64
2018-06-25T22:31:39.305Z,14.66
2018-06-25T22:34:07.403Z,14.54
2018-06-25T22:36:35.612Z,14.56
2018-06-25T22:39:08.569Z,14.67
2018-06-25T22:41:36.879Z,14.73
2018-06-25T22:44:10.061Z,14.53
2018-06-25T22:46:39.879Z,14.66
2018-06-25T22:49:08.572Z,14.61
2018-06-25T22:51:37.242Z,14.57
2018-06-25T22:54:07.015Z,14.64
2018-06-25T22:56:36.957Z,14.63
2018-06-25T22:59:05.418Z,14.65
2018-06-25T23:01:33.484Z,14.64
2018-06-25T23:04:01.700Z,14.68
2018-06-25T23:06:29.735Z,14.66
2018-06-25T23:08:57.775Z,14.67
2018-06-25T23:11:25.856Z,14.69
2018-06-25T23:13:53.888Z,14.71
2018-06-25T23:16:21.942Z,14.83
2018-06-25T23:18:49.989Z,14.80
2018-06-25T23:21:18.042Z,14.79
2018-06-25T23:23:46.072Z,14.81
2018-06-25T23:26:14.121Z,14.78
2018-06-25T23:28:42.318Z,14.77
2018-06-25T23:31:10.367Z,14.79
2018-06-25T23:33:38.435Z,14.83
2018-06-25T23:36:06.599Z,14.81
2018-06-25T23:38:34.695Z,14.68
2018-06-25T23:41:03.328Z,14.71
2018-06-25T23:43:31.386Z,14.71
2018-06-25T23:45:59.571Z,14.66
2018-06-25T23:48:27.964Z,14.71
2018-06-25T23:50:55.988Z,14.60
2018-06-25T23:53:24.075Z,14.69
2018-06-25T23:55:52.638Z,14.47
2018-06-25T23:58:20.813Z,14.47
